sensor_id;sensor_type;location;lat;lon;timestamp;temperature;humidity
43183;DHT22;28802;38.578;-0.066;2022-12-18T00:00:46;12.40;99.90
43183;DHT22;28802;38.578;-0.066;2022-12-18T00:03:14;12.40;99.90
43183;DHT22;28802;38.578;-0.066;2022-12-18T00:05:50;12.30;99.90
43183;DHT22;28802;38.578;-0.066;2022-12-18T00:08:17;12.30;99.90
43183;DHT22;28802;38.578;-0.066;2022-12-18T00:10:43;12.30;99.90
43183;DHT22;28802;38.578;-0.066;2022-12-18T00:13:10;12.30;99.90
43183;DHT22;28802;38.578;-0.066;2022-12-18T00:15:38;12.20;99.90
43183;DHT22;28802;38.578;-0.066;2022-12-18T00:18:04;12.20;99.90
43183;DHT22;28802;38.578;-0.066;2022-12-18T00:20:31;12.30;99.90
43183;DHT22;28802;38.578;-0.066;2022-12-18T00:22:57;12.30;99.90
43183;DHT22;28802;38.578;-0.066;2022-12-18T00:25:23;12.40;99.90
43183;DHT22;28802;38.578;-0.066;2022-12-18T00:27:49;12.30;99.90
43183;DHT22;28802;38.578;-0.066;2022-12-18T00:30:15;12.20;99.90
43183;DHT22;28802;38.578;-0.066;2022-12-18T00:32:40;12.10;99.90
43183;DHT22;28802;38.578;-0.066;2022-12-18T00:35:07;12.10;99.90
43183;DHT22;28802;38.578;-0.066;2022-12-18T00:37:34;12.00;99.90
43183;DHT22;28802;38.578;-0.066;2022-12-18T00:40:00;12.00;99.90
43183;DHT22;28802;38.578;-0.066;2022-12-18T00:42:28;11.90;99.90
43183;DHT22;28802;38.578;-0.066;2022-12-18T00:45:12;11.80;99.90
43183;DHT22;28802;38.578;-0.066;2022-12-18T00:47:38;11.80;99.90
43183;DHT22;28802;38.578;-0.066;2022-12-18T00:50:04;11.70;99.90
43183;DHT22;28802;38.578;-0.066;2022-12-18T00:52:30;11.70;99.90
43183;DHT22;28802;38.578;-0.066;2022-12-18T00:54:56;11.90;99.90
43183;DHT22;28802;38.578;-0.066;2022-12-18T00:57:22;11.80;99.90
43183;DHT22;28802;38.578;-0.066;2022-12-18T00:59:48;11.70;99.90
43183;DHT22;28802;38.578;-0.066;2022-12-18T01:02:14;11.70;99.90
43183;DHT22;28802;38.578;-0.066;2022-12-18T01:04:40;11.70;99.90
43183;DHT22;28802;38.578;-0.066;2022-12-18T01:07:06;11.80;99.90
43183;DHT22;28802;38.578;-0.066;2022-12-18T01:09:33;11.90;99.90
43183;DHT22;28802;38.578;-0.066;2022-12-18T01:12:00;11.90;99.90
43183;DHT22;28802;38.578;-0.066;2022-12-18T01:14:26;11.90;99.90
43183;DHT22;28802;38.578;-0.066;2022-12-18T01:16:52;11.70;99.90
43183;DHT22;28802;38.578;-0.066;2022-12-18T01:19:18;11.50;99.90
43183;DHT22;28802;38.578;-0.066;2022-12-18T01:21:46;11.60;99.90
43183;DHT22;28802;38.578;-0.066;2022-12-18T01:24:12;11.70;99.90
43183;DHT22;28802;38.578;-0.066;2022-12-18T01:26:38;11.50;99.90
43183;DHT22;28802;38.578;-0.066;2022-12-18T01:29:04;11.50;99.90
43183;DHT22;28802;38.578;-0.066;2022-12-18T01:31:32;11.40;99.90
43183;DHT22;28802;38.578;-0.066;2022-12-18T01:34:02;11.60;99.90
43183;DHT22;28802;38.578;-0.066;2022-12-18T01:36:33;11.40;99.90
43183;DHT22;28802;38.578;-0.066;2022-12-18T01:39:01;11.40;99.90
43183;DHT22;28802;38.578;-0.066;2022-12-18T01:41:30;11.50;99.90
43183;DHT22;28802;38.578;-0.066;2022-12-18T01:49:46;11.00;99.90
43183;DHT22;28802;38.578;-0.066;2022-12-18T01:52:12;11.00;99.90
43183;DHT22;28802;38.578;-0.066;2022-12-18T01:54:39;11.20;99.90
43183;DHT22;28802;38.578;-0.066;2022-12-18T01:57:05;11.20;99.90
43183;DHT22;28802;38.578;-0.066;2022-12-18T01:59:32;11.20;99.90
43183;DHT22;28802;38.578;-0.066;2022-12-18T02:01:59;11.30;99.90
43183;DHT22;28802;38.578;-0.066;2022-12-18T02:04:27;11.30;99.90
43183;DHT22;28802;38.578;-0.066;2022-12-18T02:09:46;11.00;99.90
43183;DHT22;28802;38.578;-0.066;2022-12-18T02:12:19;10.90;99.90
43183;DHT22;28802;38.578;-0.066;2022-12-18T02:15:24;11.10;99.90
43183;DHT22;28802;38.578;-0.066;2022-12-18T02:28:22;10.90;99.90
43183;DHT22;28802;38.578;-0.066;2022-12-18T02:30:51;10.80;99.90
43183;DHT22;28802;38.578;-0.066;2022-12-18T02:33:19;10.80;99.90
43183;DHT22;28802;38.578;-0.066;2022-12-18T02:35:47;10.70;99.90
43183;DHT22;28802;38.578;-0.066;2022-12-18T02:38:14;10.70;99.90
43183;DHT22;28802;38.578;-0.066;2022-12-18T02:40:44;10.80;99.90
43183;DHT22;28802;38.578;-0.066;2022-12-18T02:43:14;10.80;99.90
43183;DHT22;28802;38.578;-0.066;2022-12-18T02:45:53;10.90;99.90
43183;DHT22;28802;38.578;-0.066;2022-12-18T02:48:27;10.90;99.90
43183;DHT22;28802;38.578;-0.066;2022-12-18T02:51:12;10.90;99.90
43183;DHT22;28802;38.578;-0.066;2022-12-18T02:53:53;10.90;99.90
43183;DHT22;28802;38.578;-0.066;2022-12-18T02:56:28;10.90;99.90
43183;DHT22;28802;38.578;-0.066;2022-12-18T02:59:15;10.80;99.90
43183;DHT22;28802;38.578;-0.066;2022-12-18T03:01:58;10.80;99.90
43183;DHT22;28802;38.578;-0.066;2022-12-18T03:07:26;10.50;99.90
43183;DHT22;28802;38.578;-0.066;2022-12-18T03:09:55;10.50;99.90
43183;DHT22;28802;38.578;-0.066;2022-12-18T03:12:31;10.60;99.90
43183;DHT22;28802;38.578;-0.066;2022-12-18T03:15:27;10.60;99.90
43183;DHT22;28802;38.578;-0.066;2022-12-18T03:18:07;10.70;99.90
43183;DHT22;28802;38.578;-0.066;2022-12-18T03:20:36;10.60;99.90
43183;DHT22;28802;38.578;-0.066;2022-12-18T03:23:13;10.60;99.90
43183;DHT22;28802;38.578;-0.066;2022-12-18T03:25:45;10.60;99.90
43183;DHT22;28802;38.578;-0.066;2022-12-18T03:28:18;10.70;99.90
43183;DHT22;28802;38.578;-0.066;2022-12-18T03:30:47;10.60;99.90
43183;DHT22;28802;38.578;-0.066;2022-12-18T03:33:27;10.50;99.90
43183;DHT22;28802;38.578;-0.066;2022-12-18T03:35:55;10.40;99.90
43183;DHT22;28802;38.578;-0.066;2022-12-18T03:38:21;10.30;99.90
43183;DHT22;28802;38.578;-0.066;2022-12-18T03:41:04;10.30;99.90
43183;DHT22;28802;38.578;-0.066;2022-12-18T03:44:09;10.30;99.90
43183;DHT22;28802;38.578;-0.066;2022-12-18T03:49:36;10.20;99.90
43183;DHT22;28802;38.578;-0.066;2022-12-18T03:52:24;10.30;99.90
43183;DHT22;28802;38.578;-0.066;2022-12-18T03:54:52;10.30;99.90
43183;DHT22;28802;38.578;-0.066;2022-12-18T03:57:22;10.50;99.90
43183;DHT22;28802;38.578;-0.066;2022-12-18T03:59:57;10.50;99.90
43183;DHT22;28802;38.578;-0.066;2022-12-18T04:02:29;10.30;99.90
43183;DHT22;28802;38.578;-0.066;2022-12-18T04:05:03;10.30;99.90
43183;DHT22;28802;38.578;-0.066;2022-12-18T04:07:30;10.30;99.90
43183;DHT22;28802;38.578;-0.066;2022-12-18T04:09:59;10.10;99.90
43183;DHT22;28802;38.578;-0.066;2022-12-18T04:12:26;10.10;99.90
43183;DHT22;28802;38.578;-0.066;2022-12-18T04:14:55;10.10;99.90
43183;DHT22;28802;38.578;-0.066;2022-12-18T04:17:21;10.10;99.90
43183;DHT22;28802;38.578;-0.066;2022-12-18T04:19:48;10.30;99.90
43183;DHT22;28802;38.578;-0.066;2022-12-18T04:22:16;10.20;99.90
43183;DHT22;28802;38.578;-0.066;2022-12-18T04:24:46;10.20;99.90
43183;DHT22;28802;38.578;-0.066;2022-12-18T04:27:23;10.30;99.90
43183;DHT22;28802;38.578;-0.066;2022-12-18T04:29:50;10.30;99.90
43183;DHT22;28802;38.578;-0.066;2022-12-18T04:32:17;10.20;99.90
43183;DHT22;28802;38.578;-0.066;2022-12-18T04:34:44;10.10;99.90
43183;DHT22;28802;38.578;-0.066;2022-12-18T04:37:10;10.10;99.90
43183;DHT22;28802;38.578;-0.066;2022-12-18T04:39:37;10.10;99.90
43183;DHT22;28802;38.578;-0.066;2022-12-18T04:42:09;10.00;99.90
43183;DHT22;28802;38.578;-0.066;2022-12-18T04:44:36;10.00;99.90
43183;DHT22;28802;38.578;-0.066;2022-12-18T04:47:02;10.10;99.90
43183;DHT22;28802;38.578;-0.066;2022-12-18T04:49:28;10.00;99.90
43183;DHT22;28802;38.578;-0.066;2022-12-18T04:51:53;10.00;99.90
43183;DHT22;28802;38.578;-0.066;2022-12-18T04:54:19;9.80;99.90
43183;DHT22;28802;38.578;-0.066;2022-12-18T04:56:46;9.90;99.90
43183;DHT22;28802;38.578;-0.066;2022-12-18T04:59:13;10.00;99.90
43183;DHT22;28802;38.578;-0.066;2022-12-18T05:01:39;10.00;99.90
43183;DHT22;28802;38.578;-0.066;2022-12-18T05:04:05;9.90;99.90
43183;DHT22;28802;38.578;-0.066;2022-12-18T05:06:31;10.00;99.90
43183;DHT22;28802;38.578;-0.066;2022-12-18T05:08:56;10.00;99.90
43183;DHT22;28802;38.578;-0.066;2022-12-18T05:11:22;9.90;99.90
43183;DHT22;28802;38.578;-0.066;2022-12-18T05:13:49;9.80;99.90
43183;DHT22;28802;38.578;-0.066;2022-12-18T05:16:15;9.90;99.90
43183;DHT22;28802;38.578;-0.066;2022-12-18T05:18:41;9.90;99.90
43183;DHT22;28802;38.578;-0.066;2022-12-18T05:21:07;9.90;99.90
43183;DHT22;28802;38.578;-0.066;2022-12-18T05:23:33;9.90;99.90
43183;DHT22;28802;38.578;-0.066;2022-12-18T05:26:01;10.00;99.90
43183;DHT22;28802;38.578;-0.066;2022-12-18T05:28:29;10.00;99.90
43183;DHT22;28802;38.578;-0.066;2022-12-18T05:30:58;10.10;99.90
43183;DHT22;28802;38.578;-0.066;2022-12-18T05:33:27;10.00;99.90
43183;DHT22;28802;38.578;-0.066;2022-12-18T05:35:56;9.80;99.90
43183;DHT22;28802;38.578;-0.066;2022-12-18T05:38:24;9.80;99.90
43183;DHT22;28802;38.578;-0.066;2022-12-18T05:40:51;9.90;99.90
43183;DHT22;28802;38.578;-0.066;2022-12-18T05:43:18;9.90;99.90
43183;DHT22;28802;38.578;-0.066;2022-12-18T05:45:45;10.00;99.90
43183;DHT22;28802;38.578;-0.066;2022-12-18T05:48:11;10.10;99.90
43183;DHT22;28802;38.578;-0.066;2022-12-18T05:50:41;10.00;99.90
43183;DHT22;28802;38.578;-0.066;2022-12-18T05:53:08;9.90;99.90
43183;DHT22;28802;38.578;-0.066;2022-12-18T05:55:38;9.80;99.90
43183;DHT22;28802;38.578;-0.066;2022-12-18T05:58:06;9.80;99.90
43183;DHT22;28802;38.578;-0.066;2022-12-18T06:00:34;9.80;99.90
43183;DHT22;28802;38.578;-0.066;2022-12-18T06:03:00;9.80;99.90
43183;DHT22;28802;38.578;-0.066;2022-12-18T06:05:27;9.80;99.90
43183;DHT22;28802;38.578;-0.066;2022-12-18T06:07:53;9.80;99.90
43183;DHT22;28802;38.578;-0.066;2022-12-18T06:10:19;9.70;99.90
43183;DHT22;28802;38.578;-0.066;2022-12-18T06:12:45;9.60;99.90
43183;DHT22;28802;38.578;-0.066;2022-12-18T06:15:11;9.60;99.90
43183;DHT22;28802;38.578;-0.066;2022-12-18T06:17:37;9.60;99.90
43183;DHT22;28802;38.578;-0.066;2022-12-18T06:20:04;9.60;99.90
43183;DHT22;28802;38.578;-0.066;2022-12-18T06:22:33;9.60;99.90
43183;DHT22;28802;38.578;-0.066;2022-12-18T06:25:00;9.50;99.90
43183;DHT22;28802;38.578;-0.066;2022-12-18T06:27:26;9.60;99.90
43183;DHT22;28802;38.578;-0.066;2022-12-18T06:29:55;9.70;99.90
43183;DHT22;28802;38.578;-0.066;2022-12-18T06:32:21;9.70;99.90
43183;DHT22;28802;38.578;-0.066;2022-12-18T06:34:47;9.80;99.90
43183;DHT22;28802;38.578;-0.066;2022-12-18T06:37:13;9.80;99.90
43183;DHT22;28802;38.578;-0.066;2022-12-18T06:39:39;9.80;99.90
43183;DHT22;28802;38.578;-0.066;2022-12-18T06:42:05;9.70;99.90
43183;DHT22;28802;38.578;-0.066;2022-12-18T06:44:31;9.80;99.90
43183;DHT22;28802;38.578;-0.066;2022-12-18T06:46:57;9.90;99.90
43183;DHT22;28802;38.578;-0.066;2022-12-18T06:49:23;9.80;99.90
43183;DHT22;28802;38.578;-0.066;2022-12-18T06:51:48;9.70;99.90
43183;DHT22;28802;38.578;-0.066;2022-12-18T06:54:14;9.70;99.90
43183;DHT22;28802;38.578;-0.066;2022-12-18T06:56:40;9.70;99.90
43183;DHT22;28802;38.578;-0.066;2022-12-18T06:59:06;9.60;99.90
43183;DHT22;28802;38.578;-0.066;2022-12-18T07:01:32;9.60;99.90
43183;DHT22;28802;38.578;-0.066;2022-12-18T07:03:58;9.60;99.90
43183;DHT22;28802;38.578;-0.066;2022-12-18T07:06:25;9.60;99.90
43183;DHT22;28802;38.578;-0.066;2022-12-18T07:08:52;9.60;99.90
43183;DHT22;28802;38.578;-0.066;2022-12-18T07:11:19;9.60;99.90
43183;DHT22;28802;38.578;-0.066;2022-12-18T07:13:46;9.70;99.90
43183;DHT22;28802;38.578;-0.066;2022-12-18T07:16:16;9.60;99.90
43183;DHT22;28802;38.578;-0.066;2022-12-18T07:18:42;9.80;99.90
43183;DHT22;28802;38.578;-0.066;2022-12-18T07:21:12;9.90;99.90
43183;DHT22;28802;38.578;-0.066;2022-12-18T07:23:38;9.90;99.90
43183;DHT22;28802;38.578;-0.066;2022-12-18T07:26:06;9.90;99.90
43183;DHT22;28802;38.578;-0.066;2022-12-18T07:28:33;9.90;99.90
43183;DHT22;28802;38.578;-0.066;2022-12-18T07:31:10;10.20;99.90
43183;DHT22;28802;38.578;-0.066;2022-12-18T07:33:37;10.20;99.90
43183;DHT22;28802;38.578;-0.066;2022-12-18T07:36:05;10.40;99.90
43183;DHT22;28802;38.578;-0.066;2022-12-18T07:38:32;10.70;99.90
43183;DHT22;28802;38.578;-0.066;2022-12-18T07:41:07;11.10;99.90
43183;DHT22;28802;38.578;-0.066;2022-12-18T07:43:34;11.40;99.90
43183;DHT22;28802;38.578;-0.066;2022-12-18T07:46:00;11.80;99.90
43183;DHT22;28802;38.578;-0.066;2022-12-18T07:48:28;12.10;99.90
43183;DHT22;28802;38.578;-0.066;2022-12-18T07:50:58;12.30;99.90
43183;DHT22;28802;38.578;-0.066;2022-12-18T07:53:24;12.50;99.90
43183;DHT22;28802;38.578;-0.066;2022-12-18T07:55:56;12.30;99.90
43183;DHT22;28802;38.578;-0.066;2022-12-18T07:58:22;12.10;99.90
43183;DHT22;28802;38.578;-0.066;2022-12-18T08:00:48;12.10;99.90
43183;DHT22;28802;38.578;-0.066;2022-12-18T08:03:14;12.10;99.90
43183;DHT22;28802;38.578;-0.066;2022-12-18T08:05:39;12.70;99.90
43183;DHT22;28802;38.578;-0.066;2022-12-18T08:08:06;13.40;99.90
43183;DHT22;28802;38.578;-0.066;2022-12-18T08:10:32;13.90;99.90
43183;DHT22;28802;38.578;-0.066;2022-12-18T08:12:58;14.30;99.90
43183;DHT22;28802;38.578;-0.066;2022-12-18T08:15:24;14.60;99.90
43183;DHT22;28802;38.578;-0.066;2022-12-18T08:17:50;14.90;99.90
43183;DHT22;28802;38.578;-0.066;2022-12-18T08:20:16;15.10;99.90
43183;DHT22;28802;38.578;-0.066;2022-12-18T08:22:44;15.00;99.90
43183;DHT22;28802;38.578;-0.066;2022-12-18T08:25:10;15.00;99.90
43183;DHT22;28802;38.578;-0.066;2022-12-18T08:27:36;15.30;99.90
43183;DHT22;28802;38.578;-0.066;2022-12-18T08:30:03;15.60;99.90
43183;DHT22;28802;38.578;-0.066;2022-12-18T08:32:30;15.90;99.90
43183;DHT22;28802;38.578;-0.066;2022-12-18T08:34:55;16.30;99.90
43183;DHT22;28802;38.578;-0.066;2022-12-18T08:37:21;16.80;99.90
43183;DHT22;28802;38.578;-0.066;2022-12-18T08:39:47;17.20;99.90
43183;DHT22;28802;38.578;-0.066;2022-12-18T08:42:13;17.60;99.90
43183;DHT22;28802;38.578;-0.066;2022-12-18T08:45:03;18.00;99.90
43183;DHT22;28802;38.578;-0.066;2022-12-18T08:47:29;17.80;99.90
43183;DHT22;28802;38.578;-0.066;2022-12-18T08:49:54;17.40;99.90
43183;DHT22;28802;38.578;-0.066;2022-12-18T08:52:20;17.20;99.90
43183;DHT22;28802;38.578;-0.066;2022-12-18T08:54:46;17.10;99.90
43183;DHT22;28802;38.578;-0.066;2022-12-18T08:57:12;17.40;99.90
43183;DHT22;28802;38.578;-0.066;2022-12-18T08:59:38;17.90;99.90
43183;DHT22;28802;38.578;-0.066;2022-12-18T09:02:05;18.40;99.90
43183;DHT22;28802;38.578;-0.066;2022-12-18T09:04:31;18.90;99.90
43183;DHT22;28802;38.578;-0.066;2022-12-18T09:06:56;19.50;99.90
43183;DHT22;28802;38.578;-0.066;2022-12-18T09:09:22;19.90;99.90
43183;DHT22;28802;38.578;-0.066;2022-12-18T09:11:48;19.80;99.90
43183;DHT22;28802;38.578;-0.066;2022-12-18T09:14:14;20.10;99.90
43183;DHT22;28802;38.578;-0.066;2022-12-18T09:16:40;20.20;99.90
43183;DHT22;28802;38.578;-0.066;2022-12-18T09:19:06;20.10;99.90
43183;DHT22;28802;38.578;-0.066;2022-12-18T09:21:34;19.80;99.90
43183;DHT22;28802;38.578;-0.066;2022-12-18T09:24:03;19.60;99.90
43183;DHT22;28802;38.578;-0.066;2022-12-18T09:26:30;19.40;99.90
43183;DHT22;28802;38.578;-0.066;2022-12-18T09:28:56;19.80;99.90
43183;DHT22;28802;38.578;-0.066;2022-12-18T09:31:23;20.20;99.90
43183;DHT22;28802;38.578;-0.066;2022-12-18T09:33:50;20.30;99.90
43183;DHT22;28802;38.578;-0.066;2022-12-18T09:36:17;20.00;99.90
43183;DHT22;28802;38.578;-0.066;2022-12-18T09:38:46;19.80;99.90
43183;DHT22;28802;38.578;-0.066;2022-12-18T09:43:53;19.40;99.90
43183;DHT22;28802;38.578;-0.066;2022-12-18T09:46:26;19.90;99.90
43183;DHT22;28802;38.578;-0.066;2022-12-18T09:48:59;20.60;99.90
43183;DHT22;28802;38.578;-0.066;2022-12-18T09:51:38;20.80;99.90
43183;DHT22;28802;38.578;-0.066;2022-12-18T09:54:11;20.70;99.90
43183;DHT22;28802;38.578;-0.066;2022-12-18T09:56:43;21.20;99.90
43183;DHT22;28802;38.578;-0.066;2022-12-18T09:59:38;21.00;99.90
43183;DHT22;28802;38.578;-0.066;2022-12-18T10:02:19;20.50;99.90
43183;DHT22;28802;38.578;-0.066;2022-12-18T10:04:55;20.40;99.90
43183;DHT22;28802;38.578;-0.066;2022-12-18T10:07:35;20.20;99.90
43183;DHT22;28802;38.578;-0.066;2022-12-18T10:10:42;19.80;99.90
43183;DHT22;28802;38.578;-0.066;2022-12-18T10:24:55;19.30;99.90
43183;DHT22;28802;38.578;-0.066;2022-12-18T10:27:26;19.40;99.90
43183;DHT22;28802;38.578;-0.066;2022-12-18T10:29:53;19.60;99.90
43183;DHT22;28802;38.578;-0.066;2022-12-18T10:32:28;19.60;99.90
43183;DHT22;28802;38.578;-0.066;2022-12-18T10:34:56;19.60;99.90
43183;DHT22;28802;38.578;-0.066;2022-12-18T10:37:26;19.60;99.90
43183;DHT22;28802;38.578;-0.066;2022-12-18T10:40:15;19.60;99.90
43183;DHT22;28802;38.578;-0.066;2022-12-18T10:42:41;19.80;99.90
43183;DHT22;28802;38.578;-0.066;2022-12-18T10:47:35;19.90;99.90
43183;DHT22;28802;38.578;-0.066;2022-12-18T10:50:01;19.90;99.90
43183;DHT22;28802;38.578;-0.066;2022-12-18T10:52:27;20.10;99.90
43183;DHT22;28802;38.578;-0.066;2022-12-18T10:54:57;20.20;99.90
43183;DHT22;28802;38.578;-0.066;2022-12-18T10:57:36;20.10;99.90
43183;DHT22;28802;38.578;-0.066;2022-12-18T11:00:25;20.00;99.90
43183;DHT22;28802;38.578;-0.066;2022-12-18T11:02:53;19.80;99.90
43183;DHT22;28802;38.578;-0.066;2022-12-18T11:05:31;19.80;99.90
43183;DHT22;28802;38.578;-0.066;2022-12-18T11:07:58;19.80;99.90
43183;DHT22;28802;38.578;-0.066;2022-12-18T11:10:36;19.50;99.90
43183;DHT22;28802;38.578;-0.066;2022-12-18T11:15:44;19.00;99.90
43183;DHT22;28802;38.578;-0.066;2022-12-18T11:18:32;18.40;99.90
43183;DHT22;28802;38.578;-0.066;2022-12-18T11:21:10;18.60;99.90
43183;DHT22;28802;38.578;-0.066;2022-12-18T11:26:11;19.20;99.90
43183;DHT22;28802;38.578;-0.066;2022-12-18T11:31:21;19.20;99.90
43183;DHT22;28802;38.578;-0.066;2022-12-18T11:36:29;19.20;99.90
43183;DHT22;28802;38.578;-0.066;2022-12-18T11:39:00;19.50;99.90
43183;DHT22;28802;38.578;-0.066;2022-12-18T11:41:45;19.30;99.90
43183;DHT22;28802;38.578;-0.066;2022-12-18T11:49:53;18.70;99.90
43183;DHT22;28802;38.578;-0.066;2022-12-18T11:52:38;18.20;99.90
43183;DHT22;28802;38.578;-0.066;2022-12-18T11:55:14;18.10;99.90
43183;DHT22;28802;38.578;-0.066;2022-12-18T12:00:19;18.20;99.90
43183;DHT22;28802;38.578;-0.066;2022-12-18T12:05:48;18.90;99.90
43183;DHT22;28802;38.578;-0.066;2022-12-18T12:16:51;19.70;99.90
43183;DHT22;28802;38.578;-0.066;2022-12-18T12:19:32;20.90;99.90
43183;DHT22;28802;38.578;-0.066;2022-12-18T12:22:36;20.90;99.90
43183;DHT22;28802;38.578;-0.066;2022-12-18T12:26:07;21.30;99.90
43183;DHT22;28802;38.578;-0.066;2022-12-18T12:28:26;21.90;99.90
43183;DHT22;28802;38.578;-0.066;2022-12-18T12:31:07;22.40;99.90
43183;DHT22;28802;38.578;-0.066;2022-12-18T12:33:42;22.00;99.90
43183;DHT22;28802;38.578;-0.066;2022-12-18T12:39:01;22.50;99.90
43183;DHT22;28802;38.578;-0.066;2022-12-18T12:41:31;22.00;99.90
43183;DHT22;28802;38.578;-0.066;2022-12-18T12:44:35;21.70;99.90
43183;DHT22;28802;38.578;-0.066;2022-12-18T12:47:16;21.50;99.90
43183;DHT22;28802;38.578;-0.066;2022-12-18T12:49:46;21.30;99.90
43183;DHT22;28802;38.578;-0.066;2022-12-18T12:52:44;21.40;99.90
43183;DHT22;28802;38.578;-0.066;2022-12-18T12:55:23;21.20;99.90
43183;DHT22;28802;38.578;-0.066;2022-12-18T13:00:25;20.90;99.90
43183;DHT22;28802;38.578;-0.066;2022-12-18T13:05:53;20.20;99.90
43183;DHT22;28802;38.578;-0.066;2022-12-18T13:08:31;19.70;99.90
43183;DHT22;28802;38.578;-0.066;2022-12-18T13:10:59;19.40;99.90
43183;DHT22;28802;38.578;-0.066;2022-12-18T13:13:51;19.30;99.90
43183;DHT22;28802;38.578;-0.066;2022-12-18T13:16:23;19.20;99.90
43183;DHT22;28802;38.578;-0.066;2022-12-18T13:18:52;19.10;99.90
43183;DHT22;28802;38.578;-0.066;2022-12-18T13:21:28;19.00;99.90
43183;DHT22;28802;38.578;-0.066;2022-12-18T13:23:55;18.90;99.90
43183;DHT22;28802;38.578;-0.066;2022-12-18T13:26:30;18.80;99.90
43183;DHT22;28802;38.578;-0.066;2022-12-18T13:28:58;18.70;99.90
43183;DHT22;28802;38.578;-0.066;2022-12-18T13:34:37;18.70;99.90
43183;DHT22;28802;38.578;-0.066;2022-12-18T13:37:39;18.70;99.90
43183;DHT22;28802;38.578;-0.066;2022-12-18T13:43:01;18.70;99.90
43183;DHT22;28802;38.578;-0.066;2022-12-18T13:45:45;18.60;99.90
43183;DHT22;28802;38.578;-0.066;2022-12-18T13:48:18;18.60;99.90
43183;DHT22;28802;38.578;-0.066;2022-12-18T13:51:06;18.60;99.90
43183;DHT22;28802;38.578;-0.066;2022-12-18T13:56:05;18.50;99.90
43183;DHT22;28802;38.578;-0.066;2022-12-18T13:58:31;18.30;99.90
43183;DHT22;28802;38.578;-0.066;2022-12-18T14:00:57;18.40;99.90
43183;DHT22;28802;38.578;-0.066;2022-12-18T14:03:27;18.20;99.90
43183;DHT22;28802;38.578;-0.066;2022-12-18T14:06:00;18.10;99.90
43183;DHT22;28802;38.578;-0.066;2022-12-18T14:08:33;18.00;99.90
43183;DHT22;28802;38.578;-0.066;2022-12-18T14:11:02;18.00;99.90
43183;DHT22;28802;38.578;-0.066;2022-12-18T14:13:31;17.90;99.90
43183;DHT22;28802;38.578;-0.066;2022-12-18T14:16:03;17.90;99.90
43183;DHT22;28802;38.578;-0.066;2022-12-18T14:20:59;17.90;99.90
43183;DHT22;28802;38.578;-0.066;2022-12-18T14:23:37;17.80;99.90
43183;DHT22;28802;38.578;-0.066;2022-12-18T14:28:48;17.90;99.90
43183;DHT22;28802;38.578;-0.066;2022-12-18T14:31:24;17.70;99.90
43183;DHT22;28802;38.578;-0.066;2022-12-18T14:33:52;17.70;99.90
43183;DHT22;28802;38.578;-0.066;2022-12-18T14:36:23;17.80;99.90
43183;DHT22;28802;38.578;-0.066;2022-12-18T14:38:51;17.70;99.90
43183;DHT22;28802;38.578;-0.066;2022-12-18T14:41:19;17.70;99.90
43183;DHT22;28802;38.578;-0.066;2022-12-18T14:43:49;17.70;99.90
43183;DHT22;28802;38.578;-0.066;2022-12-18T14:48:56;17.90;99.90
43183;DHT22;28802;38.578;-0.066;2022-12-18T14:51:26;17.90;99.90
43183;DHT22;28802;38.578;-0.066;2022-12-18T14:53:58;17.90;99.90
43183;DHT22;28802;38.578;-0.066;2022-12-18T14:56:34;17.80;99.90
43183;DHT22;28802;38.578;-0.066;2022-12-18T14:59:26;17.70;99.90
43183;DHT22;28802;38.578;-0.066;2022-12-18T15:02:04;17.70;99.90
43183;DHT22;28802;38.578;-0.066;2022-12-18T15:04:37;17.70;99.90
43183;DHT22;28802;38.578;-0.066;2022-12-18T15:09:37;17.60;99.90
43183;DHT22;28802;38.578;-0.066;2022-12-18T15:12:04;17.70;99.90
43183;DHT22;28802;38.578;-0.066;2022-12-18T15:14:31;17.80;99.90
43183;DHT22;28802;38.578;-0.066;2022-12-18T15:17:02;17.80;99.90
43183;DHT22;28802;38.578;-0.066;2022-12-18T15:19:40;17.80;99.90
43183;DHT22;28802;38.578;-0.066;2022-12-18T15:22:26;17.80;99.90
43183;DHT22;28802;38.578;-0.066;2022-12-18T15:24:54;17.70;99.90
43183;DHT22;28802;38.578;-0.066;2022-12-18T15:27:32;17.60;99.90
43183;DHT22;28802;38.578;-0.066;2022-12-18T15:32:39;17.30;99.90
43183;DHT22;28802;38.578;-0.066;2022-12-18T15:37:37;17.30;99.90
43183;DHT22;28802;38.578;-0.066;2022-12-18T15:40:07;17.20;99.90
43183;DHT22;28802;38.578;-0.066;2022-12-18T15:42:33;17.30;99.90
43183;DHT22;28802;38.578;-0.066;2022-12-18T15:45:17;17.40;99.90
43183;DHT22;28802;38.578;-0.066;2022-12-18T15:47:44;17.30;99.90
43183;DHT22;28802;38.578;-0.066;2022-12-18T15:50:10;17.30;99.90
43183;DHT22;28802;38.578;-0.066;2022-12-18T15:52:43;17.40;99.90
43183;DHT22;28802;38.578;-0.066;2022-12-18T15:55:14;17.20;99.90
43183;DHT22;28802;38.578;-0.066;2022-12-18T15:57:59;17.00;99.90
43183;DHT22;28802;38.578;-0.066;2022-12-18T16:00:25;17.00;99.90
43183;DHT22;28802;38.578;-0.066;2022-12-18T16:02:51;17.00;99.90
43183;DHT22;28802;38.578;-0.066;2022-12-18T16:05:19;16.90;99.90
43183;DHT22;28802;38.578;-0.066;2022-12-18T16:07:46;16.70;99.90
43183;DHT22;28802;38.578;-0.066;2022-12-18T16:10:14;16.60;99.90
43183;DHT22;28802;38.578;-0.066;2022-12-18T16:12:41;16.50;99.90
43183;DHT22;28802;38.578;-0.066;2022-12-18T16:15:07;16.50;99.90
43183;DHT22;28802;38.578;-0.066;2022-12-18T16:17:33;16.40;99.90
43183;DHT22;28802;38.578;-0.066;2022-12-18T16:19:59;16.30;99.90
43183;DHT22;28802;38.578;-0.066;2022-12-18T16:22:28;16.30;99.90
43183;DHT22;28802;38.578;-0.066;2022-12-18T16:24:55;16.20;99.90
43183;DHT22;28802;38.578;-0.066;2022-12-18T16:27:23;16.10;99.90
43183;DHT22;28802;38.578;-0.066;2022-12-18T16:29:49;16.10;99.90
43183;DHT22;28802;38.578;-0.066;2022-12-18T16:32:18;16.30;99.90
43183;DHT22;28802;38.578;-0.066;2022-12-18T16:34:45;16.30;99.90
43183;DHT22;28802;38.578;-0.066;2022-12-18T16:37:12;16.40;99.90
43183;DHT22;28802;38.578;-0.066;2022-12-18T16:39:39;16.40;99.90
43183;DHT22;28802;38.578;-0.066;2022-12-18T16:42:17;16.40;99.90
43183;DHT22;28802;38.578;-0.066;2022-12-18T16:44:45;16.30;99.90
43183;DHT22;28802;38.578;-0.066;2022-12-18T16:47:16;16.20;99.90
43183;DHT22;28802;38.578;-0.066;2022-12-18T16:49:45;16.00;99.90
43183;DHT22;28802;38.578;-0.066;2022-12-18T16:52:12;15.70;99.90
43183;DHT22;28802;38.578;-0.066;2022-12-18T16:54:38;15.60;99.90
43183;DHT22;28802;38.578;-0.066;2022-12-18T16:57:05;15.40;99.90
43183;DHT22;28802;38.578;-0.066;2022-12-18T16:59:31;15.20;99.90
43183;DHT22;28802;38.578;-0.066;2022-12-18T17:02:00;15.10;99.90
43183;DHT22;28802;38.578;-0.066;2022-12-18T17:04:33;15.00;99.90
43183;DHT22;28802;38.578;-0.066;2022-12-18T17:07:00;14.90;99.90
43183;DHT22;28802;38.578;-0.066;2022-12-18T17:09:25;14.80;99.90
43183;DHT22;28802;38.578;-0.066;2022-12-18T17:11:53;14.70;99.90
43183;DHT22;28802;38.578;-0.066;2022-12-18T17:14:22;14.70;99.90
43183;DHT22;28802;38.578;-0.066;2022-12-18T17:16:48;14.60;99.90
43183;DHT22;28802;38.578;-0.066;2022-12-18T17:19:14;14.50;99.90
43183;DHT22;28802;38.578;-0.066;2022-12-18T17:21:47;14.40;99.90